createdAt,value
2018-05-12T03:46:01.288Z,8.87
2018-05-12T03:48:27.631Z,8.80
2018-05-12T03:50:53.972Z,8.67
2018-05-12T03:53:21.052Z,8.57
2018-05-12T03:55:47.382Z,8.80
2018-05-12T03:58:13.747Z,8.20
2018-05-12T04:00:40.110Z,8.63
2018-05-12T04:03:06.471Z,8.60
2018-05-12T04:05:45.094Z,8.50
2018-05-12T04:08:23.715Z,8.53
2018-05-12T04:11:02.369Z,8.73
2018-05-12T04:13:28.732Z,7.90
2018-05-12T04:15:55.580Z,8.37
2018-05-12T04:18:22.676Z,8.20
2018-05-12T04:20:49.020Z,8.00
2018-05-12T04:23:15.375Z,8.40
2018-05-12T04:25:42.468Z,8.63
2018-05-12T04:28:09.925Z,7.60
2018-05-12T04:30:36.272Z,8.17
2018-05-12T04:33:02.966Z,7.77
2018-05-12T04:35:30.049Z,8.77
2018-05-12T04:37:56.385Z,7.97
2018-05-12T04:40:22.724Z,8.27
2018-05-12T04:42:49.055Z,7.70
2018-05-12T04:45:15.388Z,8.40
2018-05-12T04:47:41.739Z,7.93
2018-05-12T04:50:08.071Z,7.87
2018-05-12T04:52:34.412Z,8.03
2018-05-12T04:55:00.771Z,8.17
2018-05-12T04:57:27.858Z,8.23
2018-05-12T04:59:54.197Z,8.30
2018-05-12T05:02:20.530Z,8.03
2018-05-12T05:04:46.871Z,7.80
2018-05-12T05:07:13.219Z,7.00
2018-05-12T05:09:39.983Z,7.47
2018-05-12T05:12:06.335Z,7.90
2018-05-12T05:14:32.683Z,7.00
2018-05-12T05:16:59.042Z,7.13
2018-05-12T05:19:25.842Z,7.00
2018-05-12T05:21:52.232Z,7.67
2018-05-12T05:24:18.582Z,7.33
2018-05-12T05:26:44.947Z,7.40
2018-05-12T05:29:11.311Z,7.20
2018-05-12T05:31:37.680Z,7.73
2018-05-12T05:34:04.039Z,7.33
2018-05-12T05:36:30.443Z,7.80
2018-05-12T05:38:56.788Z,7.87
2018-05-12T05:41:23.146Z,8.27
2018-05-12T05:43:49.619Z,7.80
2018-05-12T05:46:15.976Z,7.90
2018-05-12T05:48:42.325Z,7.87
2018-05-12T05:51:08.664Z,8.17
2018-05-12T05:53:35.001Z,7.13
2018-05-12T05:56:01.349Z,7.47
2018-05-12T05:58:27.772Z,7.17
2018-05-12T06:00:54.057Z,8.53
2018-05-12T06:03:20.404Z,7.83
2018-05-12T06:05:46.748Z,7.93
2018-05-12T06:08:13.087Z,7.83
2018-05-12T06:10:39.459Z,8.53
2018-05-12T06:13:05.809Z,7.73
2018-05-12T06:15:32.899Z,8.30
2018-05-12T06:17:59.347Z,6.80
2018-05-12T06:20:25.678Z,6.90
2018-05-12T06:22:52.056Z,7.90
2018-05-12T06:25:19.140Z,7.73
2018-05-12T06:27:45.481Z,7.20
2018-05-12T06:30:11.823Z,6.30
2018-05-12T06:32:38.212Z,6.53
2018-05-12T06:35:04.586Z,5.93
2018-05-12T06:37:30.939Z,6.47
2018-05-12T06:39:58.053Z,6.40
2018-05-12T06:42:24.402Z,5.97
2018-05-12T06:44:50.763Z,5.77
2018-05-12T06:47:17.871Z,6.23
2018-05-12T06:49:44.210Z,6.97
2018-05-12T06:52:10.571Z,16.00
2018-05-12T06:54:37.660Z,19.83
2018-05-12T06:57:04.071Z,22.50
2018-05-12T06:59:30.498Z,21.63
2018-05-12T07:01:57.609Z,22.07
2018-05-12T07:04:23.996Z,23.60
2018-05-12T07:06:50.358Z,22.13
2018-05-12T07:09:16.716Z,20.43
2018-05-12T07:11:43.042Z,17.87
2018-05-12T07:14:09.393Z,15.40
2018-05-12T07:16:36.503Z,14.20
2018-05-12T07:19:02.867Z,14.27
2018-05-12T07:21:29.959Z,13.23
2018-05-12T07:23:56.365Z,13.10
2018-05-12T07:26:22.739Z,11.60
2018-05-12T07:28:49.871Z,11.20
2018-05-12T07:31:16.204Z,11.40
2018-05-12T07:33:42.535Z,11.03
2018-05-12T07:36:08.861Z,11.07
2018-05-12T07:38:35.217Z,10.40
2018-05-12T07:41:01.601Z,9.67
2018-05-12T07:43:27.941Z,9.47
2018-05-12T07:45:55.102Z,9.90
2018-05-12T07:48:21.471Z,10.50
2018-05-12T07:50:47.887Z,10.73
2018-05-12T07:53:15.159Z,10.17
2018-05-12T07:55:41.565Z,9.50
2018-05-12T07:58:08.251Z,10.33
2018-05-12T08:00:34.616Z,10.00
2018-05-12T08:03:01.701Z,9.73
2018-05-12T08:05:28.100Z,9.43
2018-05-12T08:07:54.460Z,9.43
2018-05-12T08:10:20.817Z,10.17
2018-05-12T08:12:47.212Z,9.43
2018-05-12T08:15:13.704Z,9.57
2018-05-12T08:17:40.801Z,8.93
2018-05-12T08:20:07.156Z,8.50
2018-05-12T08:22:33.487Z,8.60
2018-05-12T08:24:59.843Z,8.57
2018-05-12T08:27:26.190Z,7.77
2018-05-12T08:29:52.600Z,7.13
2018-05-12T08:32:18.996Z,7.60
2018-05-12T08:34:45.347Z,7.33
2018-05-12T08:37:11.695Z,7.70
2018-05-12T08:39:38.038Z,6.90
2018-05-12T08:42:05.153Z,7.20
2018-05-12T08:44:31.500Z,6.60
2018-05-12T08:46:57.857Z,7.43
2018-05-12T08:49:24.941Z,7.40
2018-05-12T08:51:51.283Z,6.67
2018-05-12T08:54:17.659Z,5.93
2018-05-12T08:56:44.746Z,6.27
2018-05-12T08:59:11.090Z,6.27
2018-05-12T09:01:37.507Z,6.30
2018-05-12T09:04:04.380Z,6.40
2018-05-12T09:06:30.772Z,6.27
2018-05-12T09:08:57.177Z,6.20
2018-05-12T09:11:24.296Z,5.90
2018-05-12T09:13:51.384Z,5.90
2018-05-12T09:16:18.469Z,6.23
2018-05-12T09:18:44.838Z,6.00
2018-05-12T09:23:52.292Z,5.50
2018-05-12T09:26:18.700Z,5.73
2018-05-12T09:28:45.792Z,5.60
2018-05-12T09:31:12.135Z,5.33
2018-05-12T09:33:38.497Z,5.63
2018-05-12T09:36:04.838Z,5.60
2018-05-12T09:38:31.402Z,5.07
2018-05-12T09:40:57.792Z,5.73
2018-05-12T09:43:24.173Z,5.70
2018-05-12T09:45:50.538Z,5.50
2018-05-12T09:48:17.025Z,5.00
2018-05-12T09:50:43.637Z,5.33
2018-05-12T09:53:10.062Z,5.07
2018-05-12T09:55:36.420Z,5.10
2018-05-12T09:58:03.519Z,5.80
2018-05-12T10:00:29.876Z,5.27
2018-05-12T10:02:56.256Z,5.03
2018-05-12T10:05:22.617Z,5.27
2018-05-12T10:07:48.995Z,5.50
2018-05-12T10:10:16.072Z,5.40
2018-05-12T10:12:42.833Z,4.80
2018-05-12T10:15:09.199Z,5.20
2018-05-12T10:17:36.324Z,5.23
2018-05-12T10:20:02.831Z,5.53
2018-05-12T10:22:29.200Z,5.13
2018-05-12T10:24:55.589Z,4.67
2018-05-12T10:27:21.960Z,5.13
2018-05-12T10:29:48.388Z,4.87
2018-05-12T10:32:14.760Z,4.83
2018-05-12T10:34:41.125Z,4.70
2018-05-12T10:37:07.547Z,5.30
2018-05-12T10:39:33.928Z,4.70
2018-05-12T10:42:02.221Z,5.20
2018-05-12T10:44:28.631Z,4.40
2018-05-12T10:46:54.999Z,4.63
2018-05-12T10:49:24.184Z,4.63
2018-05-12T10:51:51.316Z,4.37
2018-05-12T10:54:17.656Z,4.53
2018-05-12T10:56:45.051Z,4.33
2018-05-12T10:59:11.499Z,4.50
2018-05-12T11:01:37.883Z,4.60
2018-05-12T11:04:04.976Z,5.07
2018-05-12T11:06:31.337Z,4.97
2018-05-12T11:08:57.731Z,5.10
2018-05-12T11:11:24.217Z,4.50
2018-05-12T11:13:50.564Z,4.40
2018-05-12T11:16:16.921Z,4.53
2018-05-12T11:18:43.283Z,4.20
2018-05-12T11:21:09.750Z,4.10
2018-05-12T11:23:36.099Z,4.60
2018-05-12T11:26:03.197Z,4.90
2018-05-12T11:28:29.615Z,4.70
2018-05-12T11:30:55.965Z,4.37
2018-05-12T11:33:22.360Z,4.63
2018-05-12T11:35:48.740Z,4.27
2018-05-12T11:38:15.090Z,4.17
2018-05-12T11:40:41.522Z,4.20
2018-05-12T11:43:07.860Z,4.33
2018-05-12T11:45:34.254Z,4.70
2018-05-12T11:48:00.620Z,4.03
2018-05-12T11:50:26.972Z,4.70
2018-05-12T11:52:54.096Z,4.63
2018-05-12T11:55:20.446Z,4.27
2018-05-12T11:57:46.808Z,4.57
2018-05-12T12:00:13.152Z,4.37
2018-05-12T12:02:39.531Z,4.10
2018-05-12T12:05:05.915Z,4.13
2018-05-12T12:07:33.076Z,4.50
2018-05-12T12:10:00.223Z,4.30
2018-05-12T12:12:26.580Z,4.17
2018-05-12T12:14:53.703Z,4.80
2018-05-12T12:17:20.085Z,3.93
2018-05-12T12:19:47.584Z,4.40
2018-05-12T12:22:14.085Z,3.97
2018-05-12T12:24:41.200Z,4.40
2018-05-12T12:27:07.551Z,4.67
2018-05-12T12:29:33.933Z,4.63
2018-05-12T12:32:00.291Z,4.20
2018-05-12T12:34:26.674Z,4.43
2018-05-12T12:36:53.015Z,3.90
2018-05-12T12:39:20.333Z,4.27
2018-05-12T12:41:47.465Z,4.30
2018-05-12T12:44:13.832Z,4.40
2018-05-12T15:49:38.944Z,2.60
2018-05-12T15:52:05.675Z,2.43
2018-05-12T15:54:32.072Z,2.60
2018-05-12T15:56:58.455Z,2.80
2018-05-12T15:59:24.916Z,2.80
2018-05-12T16:01:51.289Z,2.70
2018-05-12T16:04:17.700Z,2.43
2018-05-12T16:06:44.076Z,2.93
2018-05-12T16:09:10.471Z,3.40
2018-05-12T16:11:36.871Z,3.40
2018-05-12T16:14:03.231Z,3.60
2018-05-12T16:16:30.386Z,3.40
2018-05-12T16:18:56.791Z,3.40
2018-05-12T16:21:23.941Z,3.20
2018-05-12T16:23:51.068Z,3.30
2018-05-12T16:26:17.429Z,3.63
2018-05-12T16:28:44.798Z,3.47
2018-05-12T16:31:11.186Z,3.37
2018-05-12T16:33:37.555Z,3.23
2018-05-12T16:36:04.667Z,3.40
2018-05-12T16:38:31.035Z,3.37
2018-05-12T16:40:58.150Z,3.40
2018-05-12T16:43:24.524Z,3.60
2018-05-12T16:45:50.875Z,3.20
2018-05-12T16:48:17.289Z,3.13
2018-05-12T16:50:44.577Z,3.63
2018-05-12T16:53:10.848Z,3.23
2018-05-12T16:55:37.852Z,3.13
2018-05-12T16:58:04.229Z,3.40
2018-05-12T17:00:30.571Z,3.60
2018-05-12T17:02:56.958Z,3.20
2018-05-12T17:05:23.336Z,3.00
2018-05-12T17:07:50.463Z,3.20
2018-05-12T17:10:16.815Z,3.83
2018-05-12T17:12:43.925Z,3.50
2018-05-12T17:15:10.297Z,3.67
2018-05-12T17:17:37.464Z,3.40
2018-05-12T17:20:03.819Z,3.63
2018-05-12T17:22:30.177Z,3.77
2018-05-12T17:24:56.559Z,3.50
2018-05-12T17:27:22.924Z,3.73
2018-05-12T17:29:49.315Z,3.40
2018-05-12T17:32:16.393Z,4.13
2018-05-12T17:34:42.763Z,3.93
2018-05-12T17:37:09.125Z,3.80
2018-05-12T17:39:36.240Z,3.60
2018-05-12T17:42:02.608Z,4.30
2018-05-12T17:44:28.972Z,4.37
2018-05-12T17:46:55.335Z,4.40
2018-05-12T17:49:21.721Z,4.47
2018-05-12T17:51:48.142Z,4.50
2018-05-12T17:54:14.536Z,4.17
2018-05-12T17:56:40.899Z,4.00
2018-05-12T17:59:08.907Z,4.20
2018-05-12T18:01:35.272Z,4.17
2018-05-12T18:04:01.603Z,3.70
2018-05-12T18:06:27.975Z,3.80
2018-05-12T18:08:54.292Z,3.90
2018-05-12T18:11:20.612Z,3.77
2018-05-12T18:13:47.727Z,4.13
2018-05-12T18:16:14.103Z,4.07
2018-05-12T18:18:40.480Z,3.97
2018-05-12T18:21:06.847Z,3.83
2018-05-12T18:23:33.224Z,4.00
2018-05-12T18:25:59.579Z,3.60
2018-05-12T18:28:25.920Z,3.80
2018-05-12T18:30:52.284Z,4.03
2018-05-12T18:33:19.376Z,3.80
2018-05-12T18:35:45.751Z,3.80
2018-05-12T18:38:12.105Z,3.87
2018-05-12T18:40:38.472Z,3.70
2018-05-12T18:43:04.821Z,3.60
2018-05-12T18:45:32.161Z,3.90
2018-05-12T18:47:59.271Z,3.67
2018-05-12T18:50:26.376Z,3.60
2018-05-12T18:52:52.700Z,3.70
2018-05-12T18:55:19.026Z,3.87
2018-05-12T18:57:46.085Z,3.80
2018-05-12T19:00:12.396Z,3.50
2018-05-12T19:02:39.483Z,3.50
2018-05-12T19:05:05.823Z,3.73
2018-05-12T19:07:32.943Z,3.50
2018-05-12T19:09:59.264Z,3.70
2018-05-12T19:12:25.586Z,3.50
2018-05-12T19:14:52.645Z,3.53
2018-05-12T19:17:18.979Z,3.03
2018-05-12T19:19:45.309Z,3.60
2018-05-12T19:22:11.663Z,3.47
2018-05-12T19:24:37.976Z,3.30
2018-05-12T19:27:04.272Z,3.17
2018-05-12T19:29:30.596Z,3.00
2018-05-12T19:31:56.902Z,3.00
2018-05-12T19:34:23.220Z,3.33
2018-05-12T19:36:49.535Z,3.53
2018-05-12T19:39:15.878Z,3.53
2018-05-12T19:41:42.233Z,3.53
2018-05-12T19:44:08.568Z,3.50
2018-05-12T19:46:35.655Z,3.33
2018-05-12T19:49:03.428Z,3.23
2018-05-12T19:51:29.734Z,3.67
2018-05-12T19:53:56.040Z,3.23
2018-05-12T19:56:23.161Z,3.37
2018-05-12T19:58:49.480Z,3.70
2018-05-12T20:01:15.794Z,3.40
2018-05-12T20:03:42.882Z,3.80
2018-05-12T20:06:09.216Z,3.90
2018-05-12T20:08:35.544Z,3.40
2018-05-12T20:11:01.886Z,3.63
2018-05-12T20:13:28.220Z,3.50
2018-05-12T20:15:54.566Z,3.40
2018-05-12T20:18:20.879Z,3.70
2018-05-12T20:20:47.187Z,3.43
2018-05-12T20:23:13.533Z,3.30
2018-05-12T20:25:39.906Z,3.27
2018-05-12T20:28:06.186Z,3.37
2018-05-12T20:30:32.605Z,3.00
2018-05-12T20:33:00.772Z,3.03
2018-05-12T20:35:27.108Z,3.50
2018-05-12T20:37:53.488Z,3.80
2018-05-12T20:40:19.834Z,3.60
2018-05-12T20:42:46.890Z,3.60
2018-05-12T20:45:13.952Z,3.77
2018-05-12T20:47:40.317Z,3.30
2018-05-12T20:50:06.686Z,3.30
2018-05-12T20:52:33.025Z,3.30
2018-05-12T20:55:00.101Z,3.30
2018-05-12T20:57:26.430Z,3.50
2018-05-12T20:59:52.781Z,3.10
2018-05-12T21:02:19.092Z,3.53
2018-05-12T21:04:45.442Z,3.40
2018-05-12T21:07:12.194Z,3.00
2018-05-12T21:09:38.517Z,3.10
2018-05-12T21:12:04.911Z,3.00
2018-05-12T21:14:31.985Z,3.50
2018-05-12T21:16:58.304Z,3.33
2018-05-12T21:19:24.615Z,3.27
2018-05-12T21:21:50.970Z,3.33
2018-05-12T21:24:17.288Z,3.50
2018-05-12T21:26:44.358Z,3.47
2018-05-12T21:29:10.702Z,3.07
2018-05-12T21:31:37.032Z,3.33
2018-05-12T21:34:03.347Z,3.27
2018-05-12T21:36:29.700Z,3.27
2018-05-12T21:38:56.038Z,3.63
2018-05-12T21:41:22.389Z,3.00
2018-05-12T21:43:48.702Z,3.00
2018-05-12T21:46:15.812Z,3.37
2018-05-12T21:48:42.128Z,3.50
2018-05-12T21:51:09.179Z,3.33
2018-05-12T21:53:36.240Z,3.40
2018-05-12T21:56:02.588Z,3.10
2018-05-12T21:58:28.927Z,3.70
2018-05-12T22:00:55.253Z,3.30
2018-05-12T22:03:21.580Z,3.17
2018-05-12T22:05:47.922Z,3.40
2018-05-12T22:08:14.246Z,3.13
2018-05-12T22:10:40.561Z,3.13
2018-05-12T22:13:06.868Z,3.53
2018-05-12T22:15:33.925Z,3.43
2018-05-12T22:18:00.250Z,3.07
2018-05-12T22:20:26.614Z,3.17
2018-05-12T22:22:52.921Z,3.20
2018-05-12T22:25:19.238Z,3.37
2018-05-12T22:27:46.317Z,3.63
2018-05-12T22:30:12.634Z,3.67
2018-05-12T22:32:38.939Z,3.20
2018-05-12T22:35:05.987Z,3.87
2018-05-12T22:37:33.024Z,3.60
2018-05-12T22:39:59.337Z,3.50
2018-05-12T22:42:25.660Z,3.20
2018-05-12T22:44:52.023Z,3.90
2018-05-12T22:47:19.119Z,3.30
2018-05-12T22:49:46.214Z,3.50
2018-05-12T22:52:12.582Z,3.30
2018-05-12T22:54:38.924Z,3.30
2018-05-12T22:57:05.275Z,3.50
2018-05-12T22:59:31.619Z,3.47
2018-05-12T23:01:57.980Z,3.80
2018-05-12T23:04:24.339Z,3.10
2018-05-12T23:06:50.748Z,3.20
2018-05-12T23:09:17.103Z,3.10
2018-05-12T23:11:43.484Z,3.40
2018-05-12T23:14:09.868Z,3.20
2018-05-12T23:16:36.237Z,3.80
2018-05-12T23:19:02.663Z,3.53
2018-05-12T23:21:29.044Z,3.10
2018-05-12T23:23:55.425Z,3.50
2018-05-12T23:26:21.788Z,3.33
2018-05-12T23:28:48.172Z,3.20
2018-05-12T23:31:14.555Z,3.23
2018-05-12T23:33:40.931Z,3.33
2018-05-12T23:36:07.312Z,3.60
2018-05-12T23:38:33.715Z,2.93
2018-05-12T23:41:00.090Z,3.73
2018-05-12T23:43:26.448Z,3.20
2018-05-12T23:45:52.848Z,3.43
2018-05-12T23:48:19.939Z,3.77
2018-05-12T23:50:46.313Z,3.37
2018-05-12T23:53:12.662Z,3.67
2018-05-12T23:55:39.024Z,3.73
2018-05-12T23:58:06.972Z,3.70
